West Liberty, Indiana
Current Conditions -  °F | °C
As of 4:35 AM on Thursday 27 Nov 2014 (Local Time) from KVES Reporting Station
Overcast Overcast  
Wind Chill: 18°   Ceiling: 2900
Heat Index: 28°   Visibility: 10mi
Dew Point: 28°   Wind: 12mph
Humidity: 100%   Direction: 340°NNW
Pressure: 30.11"   Gusts: NA
Location:  40.5419°N, 84.8968°W
Report Text: KVES 270935Z AUTO 34010KT 10SM SCT011 SCT018 OVC029 M02/M02 A3011 RMK AO2
Loading
Personal Weather Stations






























Interactive Weather Map New forecast layout! Learn more

10-Day Weather Forecast

Advertisements
Track Severe Weather on mobile